juin
04

GRAND PRIX DE FRANCE DE MOTOCROSS – CAT MX1 QUALIFICATIONS : CLÉMENT DESALLE SE PLACE EN TÊTE


MX1 – Qualifying Race – Classification
Pos Nr Rider Nat. Fed. Bike Time laps Diff. First Diff. Prev. Bestlaptime in lap Speed

1 25 Desalle, Clement BEL FMB Suzuki 25:16.274 13 0:00.000 0:00.000 1:52.818 12 50.737
2 2 Nagl, Maximilian GER DMSB KTM 25:17.645 13 0:01.371 0:01.371 1:52.717 5 50.782
3 222 Cairoli, Antonio ITA FMI KTM 25:18.193 13 0:01.919 0:00.548 1:51.285 12 51.436
4 24 Simpson, Shaun GBR ACU Honda 25:45.964 13 0:29.690 0:27.771 1:53.344 5 50.501
5 777 Bobryshev, Evgeny RUS MFR Honda 25:53.227 13 0:36.953 0:07.263 1:53.812 5 50.293
6 11 Ramon, Steve BEL FMB Suzuki 25:55.020 13 0:38.746 0:01.793 1:54.000 4 50.211
7 19 Philippaerts, David ITA FMI Yamaha 25:59.836 13 0:43.562 0:04.816 1:55.287 8 49.65
8 999 Goncalves, Rui POR FMP Honda 26:02.158 13 0:45.884 0:02.322 1:54.920 4 49.809
9 101 Townley, Benjamin NZL MNZ Kawasaki 26:05.156 13 0:48.882 0:02.998 1:55.837 5 49.414
10 121 Boog, Xavier FRA FFM Kawasaki 26:05.870 13 0:49.596 0:00.714 1:54.482 10 49.999
11 183 Frossard, Steven FRA FFM Yamaha 26:07.218 13 0:50.944 0:01.348 1:55.062 5 49.747

12 6 Leok, Tanel EST EMF TM 26:08.620 13 0:52.346 0:01.402 1:56.072 5 49.314
13 22 Strijbos, Kevin BEL FMB Suzuki 26:20.805 13 1:04.531 0:12.185 1:55.985 11 49.351
14 13 Monni, Manuel ITA FMI Honda 26:29.116 13 1:12.842 0:08.311 1:55.659 11 49.49
15 9 de Dycker, Ken BEL FMB Honda 26:35.038 13 1:18.764 0:05.922 1:56.329 5 49.205
16 20 Aranda, Gregory FRA FFM Kawasaki 26:37.543 13 1:21.269 0:02.505 1:56.263 12 49.233
17 7 Barragan, Jonathan ESP RFME Kawasaki 26:45.721 13 1:29.447 0:08.178 1:55.678 5 49.482
18 120 Soubeyras, Cedric FRA FFM KTM 26:46.641 13 1:30.367 0:00.920 1:58.999 3 48.101
19 39 Guarneri, Davide ITA FMI Kawasaki 26:53.330 13 1:37.056 0:06.689 1:57.698 5 48.633
20 287 Schiffer, Marcus GER DMSB Suzuki 26:59.490 13 1:43.216 0:06.160 1:59.354 4 47.958
21 26 Delince, Jeremy BEL FMB KTM 27:02.443 13 1:46.169 0:02.953 1:58.822 5 48.173
22 202 Larrieu, Loic FRA FFM KTM 27:03.375 13 1:47.101 0:00.932 1:59.447 12 47.921
23 49 Schmidinger, Günter AUT OeAMTC Honda 27:13.323 13 1:57.049 0:09.948 2:00.411 8 47.537
24 50 Barr, Martin GBR MCUI KTM 25:25.321 12 1 lap 1 lap 1:59.540 5 47.884
25 61 Brakke, Herjan NED KNMV Yamaha 25:27.090 12 1 lap 0:01.769 2:01.501 4 47.111
26 52 Walkner, Matthias AUT OeAMTC KTM 25:42.144 12 1 lap 0:15.054 2:00.481 12 47.51
27 45 Leonce, Loic FRA FFM Aprilia 25:47.949 12 1 lap 0:05.805 2:02.906 5 46.572
28 142 Parker, Nathan GBR ACU KTM 25:50.613 12 1 lap 0:02.664 2:01.992 9 46.921
29 95 Augusts, Justs LAT LAMSF Honda 25:51.585 12 1 lap 0:00.972 2:02.241 9 46.826
30 555 Irwin, Graeme GBR MCUI KTM 26:00.609 12 1 lap 0:09.024 2:01.797 4 46.996
31 74 Steinbergs, Ivo LAT LAMSF Kawasaki 26:12.897 12 1 lap 0:12.288 2:02.632 9 46.676
32 41 Smith, Alfie GBR ACU Aprilia 26:49.488 12 1 lap 0:36.591 2:02.589 3 46.693
33 77 Adam, David FRA FFM KTM 17:33.139 8 5 laps 4 laps 2:02.369 3 46.777
34 10 Boissiere, Anthony FRA FFM Yamaha 10:32.982 5 8 laps 3 laps 1:56.004 4 49.343
35 30 Lieber, Cedric BEL MUL Suzuki 9:56.040 3 10 laps 2 laps 2:04.057 2 46.14
36 67 Tiainen, Santtu FIN SML Kawasaki 0:47.222 0 13 laps 3 laps 0:00.000 0 0

Le belge est en forme cette saison et démontre qu’il sait rebondir même après un GP du Brésil lors duquel il a commis quelques erreurs.. Abandon d’Anthony Boissière suite à une chute dans un virage..

(Photo : Suzuki Racing)

A voir aussi :

Le commentaires sont fermés.